Time,TemperatureF,DewpointF,PressureIn,WindDirection,WindDirectionDegrees,WindSpeedMPH,WindSpeedGustMPH,Humidity,HourlyPrecipIn,Conditions,Clouds,dailyrainin,SoftwareType,DateUTC
2013-04-19 00:01:00,47.0,46.0,30.29,WSW,252,0.0,0.0,98,0.00,,,0.08,,2013-04-19 07:01:00,
2013-04-19 00:12:00,47.0,46.0,30.29,WSW,252,0.0,0.0,98,0.00,,,0.08,,2013-04-19 07:12:00,
2013-04-19 00:21:00,47.0,46.0,30.29,SSW,199,0.0,1.0,98,0.00,,,0.08,,2013-04-19 07:21:00,
2013-04-19 00:31:00,47.0,46.0,30.28,East,96,0.0,3.0,98,0.01,,,0.09,,2013-04-19 07:31:00,
2013-04-19 00:41:00,47.0,46.0,30.28,East,96,0.0,3.0,98,0.01,,,0.09,,2013-04-19 07:41:00,
2013-04-19 00:52:00,47.0,46.0,30.27,NE,37,0.0,0.0,98,0.01,,,0.09,,2013-04-19 07:52:00,
2013-04-19 01:02:00,47.0,46.0,30.27,NE,44,0.0,0.0,98,0.01,,,0.09,,2013-04-19 08:02:00,
2013-04-19 01:12:00,47.0,46.0,30.27,NE,44,0.0,0.0,98,0.01,,,0.09,,2013-04-19 08:12:00,
2013-04-19 01:21:00,47.0,46.0,30.27,NNE,15,0.0,0.0,98,0.01,,,0.09,,2013-04-19 08:21:00,
2013-04-19 01:32:00,47.0,46.0,30.27,NE,34,0.0,0.0,98,0.00,,,0.09,,2013-04-19 08:32:00,
2013-04-19 01:42:00,47.0,46.0,30.27,NE,34,0.0,0.0,98,0.00,,,0.09,,2013-04-19 08:42:00,
2013-04-19 01:51:00,47.0,46.0,30.26,NNW,335,0.0,0.0,98,0.01,,,0.10,,2013-04-19 08:51:00,
2013-04-19 02:01:00,47.0,46.0,30.26,East,91,0.0,2.0,98,0.01,,,0.10,,2013-04-19 09:01:00,
2013-04-19 02:11:00,47.0,46.0,30.26,East,91,0.0,2.0,98,0.01,,,0.10,,2013-04-19 09:11:00,
2013-04-19 02:21:00,47.0,46.0,30.24,ENE,59,0.0,2.0,98,0.01,,,0.10,,2013-04-19 09:21:00,
2013-04-19 02:32:00,47.0,46.0,30.24,NE,37,0.0,0.0,98,0.01,,,0.10,,2013-04-19 09:32:00,
2013-04-19 02:42:00,47.0,46.0,30.24,NE,37,0.0,0.0,98,0.01,,,0.10,,2013-04-19 09:42:00,
2013-04-19 02:52:00,47.0,46.0,30.23,SW,218,0.0,1.0,98,0.00,,,0.10,,2013-04-19 09:52:00,
2013-04-19 03:02:00,47.0,46.0,30.22,NNE,16,0.0,3.0,98,0.00,,,0.10,,2013-04-19 10:02:00,
2013-04-19 03:13:00,47.0,46.0,30.22,WSW,240,0.0,2.0,98,0.00,,,0.10,,2013-04-19 10:13:00,
2013-04-19 03:23:00,47.0,46.0,30.22,WSW,240,0.0,2.0,98,0.00,,,0.10,,2013-04-19 10:23:00,
2013-04-19 03:33:00,47.0,46.0,30.22,WSW,250,0.0,2.0,98,0.00,,,0.10,,2013-04-19 10:33:00,
2013-04-19 03:42:00,47.0,46.0,30.22,WSW,250,0.0,2.0,98,0.00,,,0.10,,2013-04-19 10:42:00,
2013-04-19 03:52:00,47.0,46.0,30.21,NE,44,0.0,2.0,98,0.00,,,0.10,,2013-04-19 10:52:00,
2013-04-19 04:02:00,47.0,46.0,30.20,WSW,249,0.0,0.0,98,0.00,,,0.10,,2013-04-19 11:02:00,
2013-04-19 04:11:00,47.0,46.0,30.20,WSW,249,0.0,0.0,98,0.00,,,0.10,,2013-04-19 11:11:00,
2013-04-19 04:21:00,47.0,46.0,30.19,NE,39,0.0,0.0,98,0.00,,,0.10,,2013-04-19 11:21:00,
2013-04-19 04:32:00,47.0,46.0,30.19,North,4,0.0,0.0,98,0.00,,,0.10,,2013-04-19 11:32:00,
2013-04-19 04:42:00,47.0,46.0,30.19,North,4,0.0,0.0,98,0.00,,,0.10,,2013-04-19 11:42:00,
2013-04-19 04:52:00,47.0,46.0,30.18,North,349,0.0,2.0,98,0.00,,,0.10,,2013-04-19 11:52:00,
2013-04-19 05:02:00,47.0,46.0,30.18,ENE,60,0.0,0.0,98,0.00,,,0.10,,2013-04-19 12:02:00,
2013-04-19 05:12:00,47.0,46.0,30.18,ENE,60,0.0,0.0,98,0.00,,,0.10,,2013-04-19 12:12:00,
2013-04-19 05:22:00,47.0,46.0,30.17,East,92,0.0,0.0,98,0.00,,,0.10,,2013-04-19 12:22:00,
2013-04-19 05:32:00,47.0,46.0,30.17,ENE,62,0.0,3.0,98,0.00,,,0.10,,2013-04-19 12:32:00,
2013-04-19 05:42:00,47.0,46.0,30.17,ENE,62,0.0,3.0,98,0.00,,,0.10,,2013-04-19 12:42:00,
2013-04-19 05:52:00,47.0,46.0,30.17,SE,133,0.0,0.0,98,0.00,,,0.10,,2013-04-19 12:52:00,
2013-04-19 06:01:00,47.0,46.0,30.16,ENE,59,0.0,1.0,98,0.01,,,0.11,,2013-04-19 13:01:00,
2013-04-19 06:11:00,47.0,46.0,30.16,ENE,59,0.0,1.0,98,0.01,,,0.11,,2013-04-19 13:11:00,
2013-04-19 06:21:00,47.0,46.0,30.16,SSE,150,0.0,1.0,98,0.03,,,0.13,,2013-04-19 13:21:00,
2013-04-19 06:32:00,47.0,46.0,30.15,ENE,75,0.0,0.0,98,0.05,,,0.15,,2013-04-19 13:32:00,
2013-04-19 06:41:00,47.0,46.0,30.15,ENE,75,0.0,0.0,98,0.05,,,0.15,,2013-04-19 13:41:00,
2013-04-19 06:52:00,47.0,46.0,30.15,SW,215,0.0,0.0,98,0.06,,,0.16,,2013-04-19 13:52:00,
2013-04-19 07:01:00,47.0,46.0,30.14,SE,127,0.0,3.0,98,0.06,,,0.17,,2013-04-19 14:01:00,
2013-04-19 07:11:00,47.0,46.0,30.14,SE,127,0.0,3.0,98,0.06,,,0.17,,2013-04-19 14:11:00,
2013-04-19 07:21:00,47.0,46.0,30.14,North,353,0.0,1.0,98,0.05,,,0.18,,2013-04-19 14:21:00,
2013-04-19 07:31:00,47.0,46.0,30.14,North,355,0.0,1.0,98,0.05,,,0.20,,2013-04-19 14:31:00,
2013-04-19 07:42:00,47.0,46.0,30.14,North,355,0.0,1.0,98,0.05,,,0.20,,2013-04-19 14:42:00,
2013-04-19 07:52:00,47.0,46.0,30.14,NE,51,0.0,0.0,98,0.04,,,0.20,,2013-04-19 14:52:00,
2013-04-19 08:01:00,47.0,46.0,30.13,SSW,197,0.0,2.0,98,0.04,,,0.21,,2013-04-19 15:01:00,
2013-04-19 08:11:00,47.0,46.0,30.13,SSW,197,0.0,2.0,98,0.04,,,0.21,,2013-04-19 15:11:00,
2013-04-19 08:21:00,47.0,46.0,30.13,NE,53,0.0,2.0,98,0.05,,,0.23,,2013-04-19 15:21:00,
2013-04-19 08:33:00,48.0,47.0,30.12,WSW,250,0.0,2.0,98,0.04,,,0.24,,2013-04-19 15:33:00,
2013-04-19 08:43:00,48.0,47.0,30.12,WSW,250,0.0,2.0,98,0.04,,,0.24,,2013-04-19 15:43:00,
2013-04-19 08:52:00,48.0,47.0,30.12,NNE,25,0.0,3.0,98,0.05,,,0.25,,2013-04-19 15:52:00,
2013-04-19 09:03:00,48.0,47.0,30.12,West,270,0.0,3.0,98,0.05,,,0.26,,2013-04-19 16:03:00,
2013-04-19 09:12:00,48.0,47.0,30.12,West,270,0.0,3.0,98,0.05,,,0.26,,2013-04-19 16:12:00,
2013-04-19 09:22:00,48.0,47.0,30.11,NE,56,0.0,4.0,98,0.03,,,0.26,,2013-04-19 16:22:00,
2013-04-19 09:32:00,48.0,47.0,30.11,SSE,161,0.0,0.0,98,0.03,,,0.27,,2013-04-19 16:32:00,
2013-04-19 09:42:00,48.0,47.0,30.11,SSE,161,0.0,0.0,98,0.03,,,0.27,,2013-04-19 16:42:00,
2013-04-19 09:52:00,48.0,47.0,30.11,SW,214,0.0,2.0,98,0.02,,,0.27,,2013-04-19 16:52:00,
2013-04-19 10:02:00,48.0,47.0,30.11,NNE,17,0.0,3.0,98,0.01,,,0.27,,2013-04-19 17:02:00,
2013-04-19 10:11:00,48.0,47.0,30.11,NNE,17,0.0,3.0,98,0.01,,,0.27,,2013-04-19 17:11:00,
2013-04-19 10:21:00,49.0,48.0,30.11,SW,235,0.0,2.0,98,0.01,,,0.27,,2013-04-19 17:21:00,
2013-04-19 10:32:00,49.0,48.0,30.11,ENE,59,0.0,1.0,98,0.00,,,0.27,,2013-04-19 17:32:00,
2013-04-19 10:42:00,49.0,48.0,30.11,ENE,59,0.0,1.0,98,0.00,,,0.27,,2013-04-19 17:42:00,
2013-04-19 10:52:00,49.0,48.0,30.11,WNW,285,0.0,1.0,98,0.00,,,0.27,,2013-04-19 17:52:00,
2013-04-19 11:01:00,49.0,48.0,30.11,East,95,0.0,5.0,98,0.01,,,0.28,,2013-04-19 18:01:00,
2013-04-19 11:13:00,49.0,48.0,30.11,East,95,0.0,5.0,98,0.01,,,0.28,,2013-04-19 18:13:00,
2013-04-19 11:22:00,50.0,49.0,30.12,WSW,255,0.0,0.0,98,0.02,,,0.28,,2013-04-19 18:22:00,
2013-04-19 11:32:00,50.0,49.0,30.12,North,357,0.0,0.0,98,0.02,,,0.28,,2013-04-19 18:32:00,
2013-04-19 11:42:00,50.0,49.0,30.12,North,357,0.0,0.0,98,0.02,,,0.28,,2013-04-19 18:42:00,
2013-04-19 11:52:00,51.0,50.0,30.12,SW,226,0.0,0.0,98,0.02,,,0.28,,2013-04-19 18:52:00,
2013-04-19 12:01:00,52.0,51.0,30.12,South,188,0.0,4.0,97,0.01,,,0.28,,2013-04-19 19:01:00,
2013-04-19 12:11:00,52.0,51.0,30.12,South,188,0.0,4.0,97,0.01,,,0.28,,2013-04-19 19:11:00,
2013-04-19 12:21:00,52.0,51.0,30.12,SW,236,0.0,2.0,97,0.00,,,0.28,,2013-04-19 19:21:00,
2013-04-19 12:31:00,53.0,52.0,30.13,South,186,0.0,3.0,96,0.00,,,0.28,,2013-04-19 19:31:00,
2013-04-19 12:41:00,53.0,52.0,30.13,South,186,0.0,3.0,96,0.00,,,0.28,,2013-04-19 19:41:00,
2013-04-19 12:52:00,52.0,50.0,30.14,SSW,212,0.0,2.0,94,0.02,,,0.31,,2013-04-19 19:52:00,
2013-04-19 13:01:00,52.0,51.0,30.14,SW,227,0.0,0.0,95,0.03,,,0.32,,2013-04-19 20:01:00,
2013-04-19 13:11:00,52.0,51.0,30.14,SW,227,0.0,0.0,95,0.03,,,0.32,,2013-04-19 20:11:00,
2013-04-19 13:22:00,52.0,50.0,30.14,WNW,297,0.0,3.0,94,0.05,,,0.34,,2013-04-19 20:22:00,
2013-04-19 13:31:00,52.0,51.0,30.14,WNW,292,0.0,1.0,95,0.05,,,0.34,,2013-04-19 20:31:00,
2013-04-19 13:41:00,52.0,50.0,30.15,WNW,303,3.0,6.0,93,0.04,,,0.35,,2013-04-19 20:41:00,
2013-04-19 13:52:00,52.0,50.0,30.15,WNW,303,3.0,6.0,93,0.04,,,0.35,,2013-04-19 20:52:00,
2013-04-19 14:01:00,52.0,51.0,30.15,West,274,2.0,5.0,95,0.03,,,0.35,,2013-04-19 21:01:00,
2013-04-19 14:11:00,52.0,50.0,30.15,SSW,209,0.0,6.0,93,0.02,,,0.36,,2013-04-19 21:11:00,
2013-04-19 14:21:00,52.0,50.0,30.15,SSW,209,0.0,6.0,93,0.02,,,0.36,,2013-04-19 21:21:00,
2013-04-19 14:32:00,52.0,50.0,30.16,NE,49,0.0,3.0,94,0.02,,,0.36,,2013-04-19 21:32:00,
2013-04-19 14:42:00,52.0,50.0,30.16,NE,49,0.0,3.0,94,0.02,,,0.36,,2013-04-19 21:42:00,
2013-04-19 14:52:00,52.0,49.0,30.16,West,264,4.0,11.0,90,0.01,,,0.36,,2013-04-19 21:52:00,
2013-04-19 15:02:00,52.0,49.0,30.16,NW,304,4.0,10.0,89,0.01,,,0.36,,2013-04-19 22:02:00,
2013-04-19 15:12:00,52.0,49.0,30.16,NW,304,4.0,10.0,89,0.01,,,0.36,,2013-04-19 22:12:00,
2013-04-19 15:22:00,52.0,48.0,30.17,NW,312,6.0,15.0,87,0.00,,,0.36,,2013-04-19 22:22:00,
2013-04-19 15:33:00,52.0,48.0,30.17,NW,308,1.0,13.0,87,0.00,,,0.36,,2013-04-19 22:33:00,
2013-04-19 15:42:00,52.0,48.0,30.17,NW,308,1.0,13.0,87,0.00,,,0.36,,2013-04-19 22:42:00,
2013-04-19 15:52:00,52.0,49.0,30.18,NW,305,3.0,9.0,88,0.00,,,0.36,,2013-04-19 22:52:00,
2013-04-19 16:02:00,52.0,48.0,30.18,NW,304,5.0,9.0,87,0.00,,,0.36,,2013-04-19 23:02:00,
2013-04-19 16:11:00,52.0,48.0,30.18,NW,304,5.0,9.0,87,0.00,,,0.36,,2013-04-19 23:11:00,
2013-04-19 16:22:00,52.0,48.0,30.19,West,274,6.0,12.0,85,0.00,,,0.36,,2013-04-19 23:22:00,
2013-04-19 16:31:00,52.0,47.0,30.19,SSW,207,6.0,13.0,83,0.00,,,0.36,,2013-04-19 23:31:00,
2013-04-19 16:42:00,52.0,47.0,30.19,SSW,207,6.0,13.0,83,0.00,,,0.36,,2013-04-19 23:42:00,
2013-04-19 16:52:00,53.0,48.0,30.19,NW,316,2.0,12.0,83,0.00,,,0.36,,2013-04-19 23:52:00,
2013-04-19 17:01:00,52.0,47.0,30.19,WNW,300,5.0,11.0,82,0.00,,,0.36,,2013-04-20 00:01:00,
2013-04-19 17:11:00,52.0,47.0,30.19,WNW,300,5.0,11.0,82,0.00,,,0.36,,2013-04-20 00:11:00,
2013-04-19 17:21:00,52.0,47.0,30.20,NW,311,2.0,10.0,82,0.00,,,0.36,,2013-04-20 00:21:00,
2013-04-19 17:31:00,52.0,47.0,30.21,WNW,286,2.0,7.0,82,0.00,,,0.36,,2013-04-20 00:31:00,
2013-04-19 17:41:00,52.0,47.0,30.21,WNW,286,2.0,7.0,82,0.00,,,0.36,,2013-04-20 00:41:00,
2013-04-19 17:52:00,52.0,46.0,30.21,NW,325,3.0,13.0,79,0.00,,,0.36,,2013-04-20 00:52:00,
2013-04-19 18:01:00,53.0,46.0,30.21,NNW,337,2.0,8.0,78,0.00,,,0.36,,2013-04-20 01:01:00,
2013-04-19 18:11:00,53.0,46.0,30.21,NNW,337,2.0,8.0,78,0.00,,,0.36,,2013-04-20 01:11:00,
2013-04-19 18:21:00,54.0,46.0,30.22,WSW,255,3.0,12.0,75,0.00,,,0.36,,2013-04-20 01:21:00,
2013-04-19 18:32:00,54.0,46.0,30.22,WNW,288,4.0,11.0,75,0.00,,,0.34,,2013-04-20 01:32:00,
2013-04-19 18:42:00,54.0,46.0,30.22,WNW,288,4.0,11.0,75,0.00,,,0.34,,2013-04-20 01:42:00,
2013-04-19 18:52:00,53.0,46.0,30.22,NW,306,3.0,8.0,77,0.00,,,0.34,,2013-04-20 01:52:00,
2013-04-19 19:01:00,53.0,46.0,30.22,WNW,299,3.0,7.0,77,0.00,,,0.34,,2013-04-20 02:01:00,
2013-04-19 19:11:00,53.0,46.0,30.22,WNW,299,3.0,7.0,77,0.00,,,0.34,,2013-04-20 02:11:00,
2013-04-19 19:21:00,52.0,46.0,30.23,North,349,0.0,5.0,80,0.00,,,0.31,,2013-04-20 02:21:00,
2013-04-19 19:31:00,51.0,46.0,30.23,SSE,163,0.0,4.0,82,0.00,,,0.31,,2013-04-20 02:31:00,
2013-04-19 19:42:00,51.0,46.0,30.23,SSE,163,0.0,4.0,82,0.00,,,0.31,,2013-04-20 02:42:00,
2013-04-19 19:52:00,50.0,45.0,30.23,NW,311,2.0,4.0,84,0.00,,,0.31,,2013-04-20 02:52:00,
2013-04-19 20:01:00,50.0,46.0,30.23,West,278,0.0,3.0,85,0.00,,,0.31,,2013-04-20 03:01:00,
2013-04-19 20:11:00,50.0,46.0,30.23,West,278,0.0,3.0,85,0.00,,,0.31,,2013-04-20 03:11:00,
2013-04-19 20:21:00,49.0,45.0,30.24,NW,312,0.0,3.0,87,0.00,,,0.28,,2013-04-20 03:21:00,
2013-04-19 20:32:00,49.0,46.0,30.24,SSE,154,0.0,0.0,88,0.00,,,0.28,,2013-04-20 03:32:00,
2013-04-19 20:43:00,49.0,46.0,30.24,SSE,154,0.0,0.0,88,0.00,,,0.28,,2013-04-20 03:43:00,
2013-04-19 20:53:00,49.0,46.0,30.24,NW,308,0.0,0.0,89,0.00,,,0.28,,2013-04-20 03:53:00,
2013-04-19 21:02:00,48.0,45.0,30.25,West,271,0.0,0.0,88,0.00,,,0.28,,2013-04-20 04:02:00,
2013-04-19 21:12:00,48.0,45.0,30.25,West,271,0.0,0.0,88,0.00,,,0.28,,2013-04-20 04:12:00,
2013-04-19 21:23:00,48.0,45.0,30.26,West,272,0.0,0.0,91,0.00,,,0.28,,2013-04-20 04:23:00,
2013-04-19 21:32:00,48.0,46.0,30.26,West,272,0.0,0.0,92,0.00,,,0.28,,2013-04-20 04:32:00,
2013-04-19 21:42:00,48.0,46.0,30.26,West,272,0.0,0.0,92,0.00,,,0.28,,2013-04-20 04:42:00,
2013-04-19 21:52:00,48.0,46.0,30.26,West,272,0.0,0.0,93,0.00,,,0.28,,2013-04-20 04:52:00,
2013-04-19 22:01:00,48.0,46.0,30.26,West,271,0.0,0.0,94,0.00,,,0.28,,2013-04-20 05:01:00,
2013-04-19 22:12:00,48.0,46.0,30.26,West,271,0.0,0.0,94,0.00,,,0.28,,2013-04-20 05:12:00,
2013-04-19 22:21:00,47.0,45.0,30.26,West,271,0.0,0.0,94,0.00,,,0.28,,2013-04-20 05:21:00,
2013-04-19 22:32:00,47.0,46.0,30.26,West,272,0.0,0.0,95,0.00,,,0.28,,2013-04-20 05:32:00,
2013-04-19 22:42:00,47.0,46.0,30.26,West,272,0.0,0.0,95,0.00,,,0.28,,2013-04-20 05:42:00,
2013-04-19 22:52:00,47.0,46.0,30.27,West,272,0.0,0.0,95,0.00,,,0.28,,2013-04-20 05:52:00,
2013-04-19 23:01:00,47.0,46.0,30.27,NW,309,0.0,0.0,95,0.00,,,0.28,,2013-04-20 06:01:00,
2013-04-19 23:12:00,47.0,46.0,30.27,NW,309,0.0,0.0,95,0.00,,,0.28,,2013-04-20 06:12:00,
2013-04-19 23:21:00,47.0,45.0,30.27,West,271,0.0,0.0,94,0.00,,,0.28,,2013-04-20 06:21:00,
2013-04-19 23:31:00,47.0,46.0,30.28,SE,144,0.0,0.0,95,0.00,,,0.28,,2013-04-20 06:31:00,
2013-04-19 23:42:00,47.0,46.0,30.28,SE,144,0.0,0.0,95,0.00,,,0.28,,2013-04-20 06:42:00,
2013-04-19 23:52:00,46.0,45.0,30.27,SE,143,0.0,0.0,95,0.00,,,0.28,,2013-04-20 06:52:00,